Time;durP1;ratioP1;P1;durP2;ratioP2;P2;SDS_P1;SDS_P2;PMS_P1;PMS_P2;Temp;Humidity;BMP_temperature;BMP_pressure;BME280_temperature;BME280_humidity;BME280_pressure;Samples;Min_cycle;Max_cycle;Signal;HPM_P1;HPM_P2
2021/05/14 08:14:10;;;;;;;1.27;0.70;;;;;;;;;;5120338;27;928819;-73
2021/05/14 08:16:36;;;;;;;1.35;0.82;;;;;;;;;;5131057;28;20158;-72
2021/05/14 08:19:02;;;;;;;2.30;1.05;;;;;;;;;;5130902;28;20015;-73
2021/05/14 08:21:29;;;;;;;1.25;0.60;;;;;;;;;;5112566;28;20046;-71
2021/05/14 08:23:55;;;;;;;1.05;0.63;;;;;;;;;;5130012;28;20057;-72
2021/05/14 08:26:21;;;;;;;1.35;0.60;;;;;;;;;;5130532;28;20016;-71
2021/05/14 08:28:47;;;;;;;1.30;0.68;;;;;;;;;;5130788;28;20016;-74
2021/05/14 08:31:13;;;;;;;2.90;0.90;;;;;;;;;;5112439;28;20068;-73
2021/05/14 08:33:40;;;;;;;2.05;0.60;;;;;;;;;;5130908;28;20015;-72
2021/05/14 08:36:06;;;;;;;2.38;0.60;;;;;;;;;;5130614;28;20333;-72
2021/05/14 08:38:33;;;;;;;1.27;0.80;;;;;;;;;;5112210;28;20011;-72
2021/05/14 08:41:08;;;;;;;1.08;0.70;;;;;;;;;;5130494;28;20027;-71
2021/05/14 08:43:34;;;;;;;0.82;0.68;;;;;;;;;;5112222;28;20110;-72
2021/05/14 08:46:02;;;;;;;2.42;0.55;;;;;;;;;;5111921;28;20064;-72
2021/05/14 08:48:30;;;;;;;2.20;0.73;;;;;;;;;;5112082;28;20034;-72
2021/05/14 08:50:57;;;;;;;5.18;0.70;;;;;;;;;;5111906;28;20059;-72
2021/05/14 08:53:23;;;;;;;1.02;0.70;;;;;;;;;;5111421;28;20523;-73
2021/05/14 08:55:49;;;;;;;0.80;0.40;;;;;;;;;;5112009;28;20363;-75
2021/05/14 08:58:15;;;;;;;1.20;0.30;;;;;;;;;;5130103;28;20098;-72
2021/05/14 09:00:42;;;;;;;0.20;0.20;;;;;;;;;;5130609;28;20065;-72
2021/05/14 09:03:11;;;;;;;0.32;0.32;;;;;;;;;;5111507;28;20063;-69
2021/05/14 09:05:39;;;;;;;0.95;0.60;;;;;;;;;;5111719;28;20022;-71
2021/05/14 09:08:05;;;;;;;0.80;0.50;;;;;;;;;;5111720;28;20016;-73
2021/05/14 09:10:33;;;;;;;1.48;0.40;;;;;;;;;;5111730;28;20038;-71
2021/05/14 09:13:00;;;;;;;0.95;0.70;;;;;;;;;;5128674;27;20074;-73
2021/05/14 09:15:34;;;;;;;0.40;0.40;;;;;;;;;;5115874;28;20077;-72
2021/05/14 09:18:20;;;;;;;0.30;0.30;;;;;;;;;;5097871;28;20027;-72
2021/05/14 09:20:52;;;;;;;0.32;0.28;;;;;;;;;;5116105;28;20148;-73
2021/05/14 09:23:21;;;;;;;0.75;0.50;;;;;;;;;;5116071;28;20034;-73
2021/05/14 09:26:17;;;;;;;2.83;0.50;;;;;;;;;;5116051;28;20095;-72
2021/05/14 09:28:44;;;;;;;0.20;0.20;;;;;;;;;;5032723;28;20116;-71
2021/05/14 09:31:14;;;;;;;0.47;0.30;;;;;;;;;;5016383;28;20073;-71
2021/05/14 09:33:51;;;;;;;0.70;0.40;;;;;;;;;;5032916;28;20037;-72
2021/05/14 09:36:20;;;;;;;1.50;0.43;;;;;;;;;;5032843;28;20071;-71
2021/05/14 09:38:53;;;;;;;1.95;0.50;;;;;;;;;;5032742;28;20124;-73
2021/05/14 09:41:23;;;;;;;0.43;0.40;;;;;;;;;;5016007;28;20473;-73
2021/05/14 09:43:55;;;;;;;2.28;0.38;;;;;;;;;;5032515;28;20033;-74
2021/05/14 09:46:32;;;;;;;1.20;0.75;;;;;;;;;;5032492;28;20033;-71
2021/05/14 09:48:59;;;;;;;0.57;0.57;;;;;;;;;;5015666;28;20017;-74
2021/05/14 09:51:26;;;;;;;0.52;0.40;;;;;;;;;;5015435;28;20029;-72
2021/05/14 09:53:52;;;;;;;0.30;0.30;;;24.20;66.50;;;;;;5032153;28;20044;-72
2021/05/14 09:56:29;;;;;;;3.13;0.45;;;;;;;;;;5015635;28;20116;-73
2021/05/14 09:58:57;;;;;;;1.17;0.40;;;24.10;71.60;;;;;;5032373;28;20367;-71
2021/05/14 10:01:24;;;;;;;0.28;0.28;;;23.40;71.80;;;;;;5031991;28;20369;-71
2021/05/14 10:03:52;;;;;;;0.88;0.50;;;23.10;71.40;;;;;;5032158;28;20552;-72
2021/05/14 10:06:20;;;;;;;1.48;0.47;;;22.90;73.00;;;;;;5115024;28;20072;-73
2021/05/14 10:08:50;;;;;;;0.63;0.30;;;22.80;70.30;;;;;;5096811;28;20035;-72
2021/05/14 10:11:23;;;;;;;0.33;0.27;;;23.20;68.30;;;;;;5115099;28;20058;-72
2021/05/14 10:13:51;;;;;;;0.40;0.40;;;23.20;73.10;;;;;;5114826;28;20108;-73
2021/05/14 10:16:18;;;;;;;0.32;0.32;;;23.30;68.70;;;;;;5114945;28;20023;-73
2021/05/14 10:18:47;;;;;;;0.63;0.40;;;23.40;71.30;;;;;;5096552;28;20024;-73
2021/05/14 10:21:14;;;;;;;2.83;0.55;;;23.70;73.60;;;;;;5096471;28;20027;-73
2021/05/14 10:23:46;;;;;;;0.65;0.40;;;24.00;73.20;;;;;;5096444;28;20024;-72
2021/05/14 10:26:13;;;;;;;0.82;0.47;;;24.50;66.80;;;;;;5095448;28;20031;-72
2021/05/14 10:28:47;;;;;;;0.68;0.47;;;24.90;66.80;;;;;;5096147;28;20341;-74
2021/05/14 10:31:17;;;;;;;0.63;0.50;;;25.40;62.50;;;;;;5096272;28;20019;-72
2021/05/14 10:33:50;;;;;;;1.15;0.40;;;26.20;64.50;;;;;;5095134;28;20067;-73
2021/05/14 10:36:22;;;;;;;0.65;0.40;;;26.30;64.90;;;;;;5096325;28;20409;-72
2021/05/14 10:39:07;;;;;;;0.50;0.50;;;;;;;;;;5114381;28;20024;-71
2021/05/14 10:41:34;;;;;;;0.47;0.47;;;;;;;;;;5114228;28;20095;-71
2021/05/14 10:44:05;;;;;;;1.40;0.40;;;;;;;;;;5114103;28;20117;-73
2021/05/14 10:46:31;;;;;;;0.50;0.43;;;;;;;;;;5114577;28;20505;-71
2021/05/14 10:49:02;;;;;;;1.15;0.40;;;;;;;;;;5114408;28;20024;-72
2021/05/14 10:51:47;;;;;;;1.17;0.57;;;;;;;;;;5114387;28;20012;-71
2021/05/14 10:54:32;;;;;;;2.50;0.60;;;;;;;;;;5114253;28;20506;-70
2021/05/14 10:56:58;;;;;;;0.93;0.35;;;;;;;;;;5113779;28;20504;-72
2021/05/14 10:59:33;;;;;;;1.10;0.35;;;;;;;;;;5114249;28;20460;-72
2021/05/14 11:02:00;;;;;;;1.33;0.60;;;;;;;;;;5114225;28;20482;-71
2021/05/14 11:04:39;;;;;;;0.65;0.40;;;;;;;;;;5114067;28;20026;-71
2021/05/14 11:07:06;;;;;;;1.58;0.55;;;;;;;;;;5095835;28;20122;-72
2021/05/14 11:09:32;;;;;;;0.63;0.50;;;;;;;;;;5114280;28;20359;-70
2021/05/14 11:12:03;;;;;;;1.70;0.80;;;;;;;;;;5113935;28;20070;-72
2021/05/14 11:14:43;;;;;;;2.30;0.50;;;;;;;;;;5095300;28;20483;-72
2021/05/14 11:17:10;;;;;;;1.42;0.50;;;;;;;;;;5095600;28;20028;-72
2021/05/14 11:19:44;;;;;;;0.98;0.50;;;;;;;;;;5113756;28;20023;-72
2021/05/14 11:22:15;;;;;;;0.50;0.50;;;;;;;;;;5113787;28;20102;-71
2021/05/14 11:24:42;;;;;;;2.75;0.55;;;;;;;;;;5113950;28;20448;-72
2021/05/14 11:27:08;;;;;;;0.50;0.38;;;;;;;;;;5113791;28;20452;-71
2021/05/14 11:29:35;;;;;;;0.38;0.32;;;;;;;;;;5113863;28;20054;-72
2021/05/14 11:32:20;;;;;;;0.57;0.45;;;;;;;;;;5095458;28;20023;-71
2021/05/14 11:34:53;;;;;;;0.70;0.52;;;;;;;;;;5113448;28;20042;-72
2021/05/14 11:37:24;;;;;;;0.38;0.25;;;;;;;;;;5110363;28;20011;-70
2021/05/14 11:39:50;;;;;;;0.82;0.55;;;;;;;;;;5094534;28;20024;-71
2021/05/14 11:42:23;;;;;;;0.70;0.40;;;;;;;;;;5113373;28;20063;-72
2021/05/14 11:45:00;;;;;;;2.97;0.60;;;;;;;;;;5095078;28;20016;-73
2021/05/14 11:47:27;;;;;;;0.57;0.50;;;;;;;;;;5113348;28;20019;-71
2021/05/14 11:49:54;;;;;;;1.80;0.70;;;;;;;;;;5113449;28;20059;-71
2021/05/14 11:52:33;;;;;;;0.65;0.52;;;;;;;;;;5113375;28;20098;-72
2021/05/14 11:55:11;;;;;;;0.68;0.30;;;26.70;51.70;;;;;;5095082;28;20020;-72
2021/05/14 11:57:39;;;;;;;0.95;0.47;;;26.20;54.40;;;;;;5112445;28;20015;-74
2021/05/14 12:00:07;;;;;;;2.75;0.80;;;;;;;;;;5113331;28;20042;-71
2021/05/14 12:02:36;;;;;;;3.20;0.70;;;25.10;55.80;;;;;;5113249;28;20088;-72
2021/05/14 12:05:04;;;;;;;2.58;0.35;;;24.80;58.30;;;;;;5095075;28;20028;-72
2021/05/14 12:07:30;;;;;;;0.95;0.70;;;24.80;57.10;;;;;;5113327;28;20019;-74
2021/05/14 12:09:57;;;;;;;4.38;0.60;;;;;;;;;;5094975;28;20020;-72
2021/05/14 12:12:23;;;;;;;0.60;0.60;;;;;;;;;;5113049;28;20030;-70
2021/05/14 12:14:50;;;;;;;0.93;0.55;;;;;;;;;;5113028;28;20111;-70
2021/05/14 12:17:16;;;;;;;1.40;0.50;;;;;;;;;;5094948;28;20022;-74
2021/05/14 12:19:48;;;;;;;4.07;0.50;;;;;;;;;;5095010;28;20111;-72
2021/05/14 12:22:15;;;;;;;1.05;0.60;;;;;;;;;;5094891;28;20024;-72
2021/05/14 12:24:41;;;;;;;2.42;0.68;;;;;;;;;;5094196;28;20057;-72
2021/05/14 12:27:10;;;;;;;2.65;0.90;;;;;;;;;;5111433;28;20100;-70
2021/05/14 12:29:36;;;;;;;0.50;0.50;;;;;;;;;;5112458;28;20325;-71
2021/05/14 12:32:04;;;;;;;0.68;0.60;;;;;;;;;;5112479;28;20371;-72
2021/05/14 12:34:30;;;;;;;2.20;0.40;;;;;;;;;;5112491;28;20459;-73
2021/05/14 12:36:57;;;;;;;0.68;0.68;;;;;;;;;;5112540;28;20026;-73
2021/05/14 12:39:24;;;;;;;1.20;0.77;;;;;;;;;;5112739;28;20364;-72
2021/05/14 12:42:02;;;;;;;0.85;0.40;;;;;;;;;;5113250;28;20383;-72
2021/05/14 12:44:35;;;;;;;1.60;0.50;;;;;;;;;;5094635;28;20015;-72
2021/05/14 12:47:11;;;;;;;1.20;0.32;;;;;;;;;;5112879;28;20023;-72
2021/05/14 12:49:47;;;;;;;3.05;0.35;;;;;;;;;;5115146;28;20496;-72
2021/05/14 12:52:15;;;;;;;0.77;0.30;;;;;;;;;;5098372;28;20081;-72
2021/05/14 12:55:13;;;;;;;0.50;0.38;;;25.90;50.40;;;;;;5098425;28;20020;-73
2021/05/14 12:57:56;;;;;;;0.28;0.20;;;25.10;51.50;;;;;;5116761;28;20066;-71
2021/05/14 13:00:28;;;;;;;0.10;0.10;;;24.50;54.90;;;;;;5116690;28;20065;-73
2021/05/14 13:03:00;;;;;;;0.38;0.17;;;24.00;55.10;;;;;;5098282;28;20065;-72
2021/05/14 13:05:52;;;;;;;0.40;0.30;;;23.50;56.70;;;;;;5116408;28;20038;-74
2021/05/14 13:08:25;;;;;;;0.30;0.22;;;23.50;59.20;;;;;;5113476;28;20152;-72
2021/05/14 13:10:57;;;;;;;0.30;0.30;;;23.40;59.50;;;;;;5098034;28;20051;-72
2021/05/14 13:13:25;;;;;;;3.65;0.45;;;23.40;62.00;;;;;;5094426;28;20105;-73
2021/05/14 13:15:57;;;;;;;0.30;0.30;;;23.20;62.70;;;;;;5095834;28;20034;-72
2021/05/14 13:18:40;;;;;;;0.90;0.77;;;23.30;62.60;;;;;;5096096;28;20059;-74
2021/05/14 13:21:08;;;;;;;0.32;0.30;;;23.30;60.90;;;;;;5094683;28;20034;-73
2021/05/14 13:23:34;;;;;;;0.20;0.20;;;23.20;62.30;;;;;;5094568;28;20031;-73
2021/05/14 13:26:00;;;;;;;0.20;0.20;;;23.30;60.50;;;;;;5096254;28;20020;-72
2021/05/14 13:28:26;;;;;;;0.20;0.20;;;23.40;57.50;;;;;;5095813;28;20024;-70
2021/05/14 13:30:52;;;;;;;0.20;0.20;;;23.30;58.20;;;;;;5094431;28;20027;-72
2021/05/14 13:33:18;;;;;;;0.75;0.35;;;23.10;58.80;;;;;;5094429;28;20032;-72
2021/05/14 13:35:44;;;;;;;1.98;0.35;;;23.10;59.50;;;;;;5094557;28;20111;-71
2021/05/14 13:38:10;;;;;;;0.20;0.20;;;23.00;61.30;;;;;;5095392;28;20099;-72
2021/05/14 13:40:37;;;;;;;0.25;0.25;;;22.80;61.90;;;;;;5095344;28;20509;-71
2021/05/14 13:43:03;;;;;;;0.28;0.20;;;22.90;63.50;;;;;;5095437;28;20039;-73
2021/05/14 13:45:29;;;;;;;0.30;0.30;;;22.80;63.60;;;;;;5095630;28;20076;-72
2021/05/14 13:47:55;;;;;;;2.30;0.30;;;22.60;65.00;;;;;;5094153;28;20027;-72
2021/05/14 13:50:21;;;;;;;2.10;0.40;;;22.50;64.40;;;;;;5095478;28;20028;-71
2021/05/14 13:52:47;;;;;;;2.78;0.65;;;22.00;66.00;;;;;;5095422;28;20031;-71
2021/05/14 13:55:13;;;;;;;0.88;0.73;;;21.60;69.70;;;;;;5093752;28;20028;-71
2021/05/14 13:57:39;;;;;;;1.23;0.65;;;21.10;71.50;;;;;;5094003;28;20075;-73
2021/05/14 14:00:06;;;;;;;1.02;0.50;;;20.80;73.20;;;;;;5093816;28;20422;-73
2021/05/14 14:02:32;;;;;;;2.15;0.60;;;20.60;72.70;;;;;;5095119;28;20028;-71
2021/05/14 14:04:57;;;;;;;0.52;0.47;;;20.50;75.80;;;;;;5095104;28;20073;-71
2021/05/14 14:07:24;;;;;;;0.55;0.47;;;20.30;75.00;;;;;;5093817;28;20494;-72
2021/05/14 14:09:50;;;;;;;0.57;0.57;;;20.20;76.40;;;;;;5094038;28;20055;-72
2021/05/14 14:12:16;;;;;;;2.55;0.60;;;20.00;77.10;;;;;;5093724;28;20064;-72
2021/05/14 14:14:42;;;;;;;0.50;0.50;;;19.90;79.50;;;;;;5113241;28;20088;-71
2021/05/14 14:17:08;;;;;;;0.43;0.40;;;19.70;79.80;;;;;;5115652;28;20016;-71
2021/05/14 14:19:34;;;;;;;0.60;0.60;;;19.70;81.90;;;;;;5097060;28;20025;-70
2021/05/14 14:22:00;;;;;;;0.50;0.40;;;19.50;80.80;;;;;;5115214;28;20378;-70
2021/05/14 14:24:27;;;;;;;0.60;0.60;;;19.40;81.60;;;;;;5115225;28;20527;-71
2021/05/14 14:26:52;;;;;;;0.70;0.70;;;19.40;85.10;;;;;;5115178;28;20219;-71
2021/05/14 14:29:18;;;;;;;0.45;0.45;;;19.30;82.90;;;;;;5114555;28;20020;-72
2021/05/14 14:31:44;;;;;;;0.50;0.50;;;19.50;85.70;;;;;;5114624;28;20019;-72
2021/05/14 14:34:11;;;;;;;1.33;0.73;;;19.90;83.60;;;;;;5096674;28;20337;-71
2021/05/14 14:36:37;;;;;;;0.40;0.40;;;20.50;85.30;;;;;;5114960;28;20058;-71
2021/05/14 14:39:04;;;;;;;0.60;0.50;;;21.00;83.20;;;;;;5114938;28;20027;-71
2021/05/14 14:41:29;;;;;;;0.60;0.60;;;21.50;79.90;;;;;;5096309;28;20019;-71
2021/05/14 14:43:55;;;;;;;0.38;0.38;;;24.00;77.10;;;;;;5114790;28;20027;-71
2021/05/14 14:46:21;;;;;;;0.30;0.30;;;26.10;69.40;;;;;;5096550;28;20359;-71
2021/05/14 14:48:47;;;;;;;0.45;0.40;;;25.10;67.00;;;;;;5096186;28;20031;-72
2021/05/14 14:51:13;;;;;;;0.32;0.32;;;24.20;66.60;;;;;;5096387;28;20463;-71
2021/05/14 14:53:39;;;;;;;1.75;0.43;;;23.60;67.60;;;;;;5114553;28;20028;-71
2021/05/14 14:56:07;;;;;;;0.73;0.30;;;23.00;68.40;;;;;;5095815;28;20055;-72
2021/05/14 14:58:34;;;;;;;1.30;0.40;;;;;;;;;;5114487;28;20440;-71
2021/05/14 15:01:00;;;;;;;2.28;0.50;;;21.90;75.00;;;;;;5114455;28;20015;-70
2021/05/14 15:03:26;;;;;;;0.65;0.60;;;21.50;77.60;;;;;;5114223;28;20023;-71
2021/05/14 15:05:54;;;;;;;0.75;0.50;;;22.10;79.20;;;;;;5096001;28;20580;-71
2021/05/14 15:08:20;;;;;;;0.50;0.50;;;22.60;75.10;;;;;;5114257;28;20024;-71
2021/05/14 15:10:47;;;;;;;1.27;0.47;;;22.30;76.00;;;;;;5114342;28;20035;-73
2021/05/14 15:13:13;;;;;;;0.63;0.63;;;21.70;77.30;;;;;;5091715;28;20047;-72
2021/05/14 15:15:39;;;;;;;0.70;0.70;;;21.20;82.20;;;;;;5093948;28;20475;-71
2021/05/14 15:18:04;;;;;;;0.70;0.70;;;21.00;84.10;;;;;;5093857;28;20028;-71
2021/05/14 15:20:31;;;;;;;0.70;0.70;;;20.90;85.80;;;;;;5093794;28;20028;-71
2021/05/14 15:22:59;;;;;;;0.98;0.82;;;20.90;86.90;;;;;;5093616;28;20130;-71
2021/05/14 15:25:25;;;;;;;0.70;0.70;;;20.90;87.60;;;;;;5093431;28;20088;-70
2021/05/14 15:27:51;;;;;;;0.70;0.70;;;21.00;88.00;;;;;;5092466;28;20042;-72
2021/05/14 15:30:19;;;;;;;1.15;1.15;;;23.40;86.00;;;;;;5093375;28;20346;-70
2021/05/14 15:32:46;;;;;;;1.25;0.95;;;23.90;83.20;;;;;;5092204;28;20031;-72
2021/05/14 15:35:12;;;;;;;0.50;0.50;;;25.00;78.30;;;;;;5092181;28;20035;-71
2021/05/14 15:37:38;;;;;;;1.88;0.30;;;;;;;;;;5092221;28;20461;-71
2021/05/14 15:40:05;;;;;;;0.50;0.45;;;25.90;65.60;;;;;;5093158;28;20020;-72
2021/05/14 15:42:34;;;;;;;2.15;0.95;;;25.40;68.70;;;;;;5093052;28;20372;-70
2021/05/14 15:45:00;;;;;;;1.65;0.32;;;26.50;67.00;;;;;;5092102;28;20021;-71
2021/05/14 15:47:26;;;;;;;0.60;0.50;;;25.30;65.60;;;;;;5093341;28;20448;-71
2021/05/14 15:49:52;;;;;;;0.60;0.60;;;24.30;69.80;;;;;;5091739;28;20103;-71
2021/05/14 15:52:18;;;;;;;2.22;0.60;;;;;;;;;;5092887;28;20038;-70
2021/05/14 15:54:46;;;;;;;0.70;0.70;;;;;;;;;;5091866;28;20053;-71
2021/05/14 15:57:13;;;;;;;0.60;0.60;;;;;;;;;;5091693;28;20016;-70
2021/05/14 15:59:39;;;;;;;0.63;0.52;;;;;;;;;;5093193;28;20470;-71
2021/05/14 16:02:06;;;;;;;0.60;0.60;;;;;;;;;;5093206;28;20032;-71
2021/05/14 16:04:32;;;;;;;0.50;0.50;;;;;;;;;;5091878;28;20016;-71
2021/05/14 16:06:58;;;;;;;0.60;0.60;;;;;;;;;;5093530;28;20486;-71
2021/05/14 16:09:26;;;;;;;0.30;0.30;;;;;;;;;;5093157;28;20066;-72
2021/05/14 16:11:53;;;;;;;0.30;0.30;;;;;;;;;;5093122;28;20012;-72
2021/05/14 16:14:19;;;;;;;0.75;0.30;;;;;;;;;;5091226;28;20043;-72
2021/05/14 16:16:55;;;;;;;1.15;0.38;;;;;;;;;;5091752;28;20483;-71
2021/05/14 16:19:23;;;;;;;0.40;0.35;;;24.50;60.90;;;;;;5093126;28;20066;-71
2021/05/14 16:21:49;;;;;;;0.57;0.57;;;23.40;64.00;;;;;;5092960;28;20021;-71
2021/05/14 16:24:15;;;;;;;0.57;0.50;;;22.50;67.40;;;;;;5093405;28;20031;-71
2021/05/14 16:26:41;;;;;;;0.98;0.82;;;22.50;68.00;;;;;;5097459;28;20095;-72
2021/05/14 16:29:06;;;;;;;3.08;0.80;;;21.90;68.70;;;;;;5097121;28;20105;-71
2021/05/14 16:31:32;;;;;;;1.58;0.50;;;21.60;70.50;;;;;;5095742;28;20181;-71
2021/05/14 16:33:58;;;;;;;0.70;0.70;;;;;;;;;;5097273;28;20020;-71
2021/05/14 16:36:24;;;;;;;1.95;0.70;;;21.90;71.70;;;;;;5097287;28;20027;-71
2021/05/14 16:38:50;;;;;;;1.00;0.70;;;23.60;68.70;;;;;;5097023;28;20028;-71
2021/05/14 16:41:16;;;;;;;1.23;0.50;;;24.40;64.90;;;;;;5095060;28;20073;-71
2021/05/14 16:43:42;;;;;;;0.98;0.70;;;23.50;65.40;;;;;;5095213;28;20544;-72
2021/05/14 16:46:08;;;;;;;1.48;0.70;;;22.60;67.40;;;;;;5094560;28;20020;-70
2021/05/14 16:48:34;;;;;;;1.95;1.00;;;22.10;70.50;;;;;;5095453;28;20522;-72
2021/05/14 16:51:00;;;;;;;1.30;1.10;;;22.60;69.80;;;;;;5095415;28;20439;-71
2021/05/14 16:53:26;;;;;;;1.17;1.08;;;22.60;68.80;;;;;;5096727;28;20107;-71
2021/05/14 16:55:52;;;;;;;1.52;1.05;;;;;;;;;;5096666;28;20024;-73
2021/05/14 16:58:18;;;;;;;5.25;1.10;;;21.60;71.70;;;;;;5092831;28;20016;-70
2021/05/14 17:00:44;;;;;;;1.60;0.90;;;21.30;73.30;;;;;;5096745;28;20049;-70
2021/05/14 17:03:09;;;;;;;1.70;0.90;;;21.00;73.80;;;;;;5096538;28;20024;-70
2021/05/14 17:05:38;;;;;;;1.02;0.90;;;20.80;75.50;;;;;;5095254;28;20024;-69
2021/05/14 17:08:05;;;;;;;1.13;1.02;;;20.60;76.60;;;;;;5096429;28;20024;-69
2021/05/14 17:10:30;;;;;;;1.70;1.10;;;20.50;77.60;;;;;;5096191;28;20099;-71
2021/05/14 17:12:56;;;;;;;1.10;1.10;;;20.30;79.70;;;;;;5099690;28;20123;-70
2021/05/14 17:15:22;;;;;;;1.42;1.08;;;20.20;80.80;;;;;;5098111;28;20448;-71
2021/05/14 17:17:48;;;;;;;1.20;1.10;;;20.10;81.20;;;;;;5098550;28;20031;-71
2021/05/14 17:20:14;;;;;;;3.28;1.20;;;20.10;82.70;;;;;;5098107;28;20038;-70
2021/05/14 17:22:40;;;;;;;4.20;1.35;;;20.00;82.60;;;;;;5116325;28;20032;-69
2021/05/14 17:25:07;;;;;;;1.40;1.25;;;19.90;83.80;;;;;;5116383;28;20508;-71
2021/05/14 17:27:34;;;;;;;3.80;1.77;;;19.80;84.80;;;;;;5116422;28;20028;-70
2021/05/14 17:30:00;;;;;;;1.40;1.30;;;19.70;85.10;;;;;;5115685;28;20368;-70
2021/05/14 17:32:26;;;;;;;1.90;1.80;;;19.70;85.90;;;;;;5115805;28;20400;-70
2021/05/14 17:34:52;;;;;;;1.98;1.50;;;19.70;86.50;;;;;;5115624;28;20498;-70
2021/05/14 17:37:18;;;;;;;8.57;1.85;;;19.70;86.50;;;;;;5115674;28;20015;-70
2021/05/14 17:39:44;;;;;;;4.72;1.77;;;19.60;87.00;;;;;;5097382;28;20072;-69
2021/05/14 17:42:10;;;;;;;3.67;2.00;;;19.50;87.30;;;;;;5115770;28;20535;-70
2021/05/14 17:44:36;;;;;;;4.47;1.73;;;19.60;88.50;;;;;;5115611;28;20103;-72
2021/05/14 17:47:02;;;;;;;5.00;2.10;;;19.60;88.40;;;;;;5115832;28;20467;-70
2021/05/14 17:49:28;;;;;;;3.42;1.83;;;19.60;89.20;;;;;;5115095;28;20019;-69
2021/05/14 17:51:54;;;;;;;3.85;1.92;;;19.50;88.80;;;;;;5096294;28;20034;-71
2021/05/14 17:54:20;;;;;;;3.45;2.00;;;19.50;89.80;;;;;;5114823;28;20020;-69
2021/05/14 17:56:45;;;;;;;7.22;1.92;;;19.40;90.20;;;;;;5096745;28;20479;-70
2021/05/14 17:59:11;;;;;;;4.63;2.10;;;19.40;90.20;;;;;;5115675;28;20053;-70
2021/05/14 18:01:37;;;;;;;3.63;2.00;;;19.40;90.60;;;;;;5096586;28;20471;-71
2021/05/14 18:04:03;;;;;;;1.88;1.50;;;19.40;91.00;;;;;;5114605;28;20491;-70
2021/05/14 18:06:29;;;;;;;1.80;1.70;;;19.40;90.80;;;;;;5096522;28;20107;-68
2021/05/14 18:08:55;;;;;;;3.60;1.48;;;19.40;91.20;;;;;;5096893;28;20047;-69
2021/05/14 18:11:21;;;;;;;7.10;2.38;;;19.30;91.30;;;;;;5095165;28;20023;-70
2021/05/14 18:13:48;;;;;;;6.18;1.98;;;19.30;91.70;;;;;;5096258;28;20090;-70
2021/05/14 18:16:16;;;;;;;4.18;1.45;;;19.20;91.80;;;;;;5115091;28;20062;-69
2021/05/14 18:19:02;;;;;;;2.83;1.58;;;19.20;91.70;;;;;;5115129;28;20474;-71
2021/05/14 18:21:28;;;;;;;2.92;1.73;;;19.10;91.90;;;;;;5115072;28;20049;-73
2021/05/14 18:23:57;;;;;;;2.50;1.63;;;19.10;91.90;;;;;;5114938;28;20460;-70
2021/05/14 18:26:24;;;;;;;2.20;1.60;;;19.10;92.00;;;;;;5115025;28;20094;-70
2021/05/14 18:28:50;;;;;;;2.65;2.17;;;19.10;92.50;;;;;;5115047;28;20024;-69
2021/05/14 18:31:16;;;;;;;3.50;2.42;;;19.10;92.50;;;;;;5114969;28;20024;-72
2021/05/14 18:33:42;;;;;;;2.75;2.20;;;19.10;92.50;;;;;;5114564;28;20054;-71
2021/05/14 18:36:08;;;;;;;6.60;2.30;;;19.00;92.90;;;;;;5114787;28;20024;-70
2021/05/14 18:38:33;;;;;;;5.70;2.90;;;19.00;94.10;;;;;;5096387;28;20028;-72
2021/05/14 18:40:59;;;;;;;6.47;3.47;;;19.00;94.70;;;;;;5114187;28;20044;-70
2021/05/14 18:43:27;;;;;;;4.55;3.38;;;;;;;;;;5114573;28;20480;-70
2021/05/14 18:45:54;;;;;;;4.30;3.05;;;;;;;;;;5095606;28;20011;-70
2021/05/14 18:48:20;;;;;;;6.60;3.08;;;;;;;;;;5114187;28;20019;-67
2021/05/14 18:50:46;;;;;;;4.47;3.47;;;;;;;;;;5096166;28;20043;-71
2021/05/14 18:53:12;;;;;;;4.95;3.30;;;;;;;;;;5114432;28;20023;-68
2021/05/14 18:55:39;;;;;;;3.28;2.08;;;;;;;;;;5095973;28;20015;-70
2021/05/14 18:58:05;;;;;;;2.38;2.05;;;;;;;;;;5114375;28;20121;-69
2021/05/14 19:00:32;;;;;;;4.22;2.25;;;;;;;;;;5095293;28;20016;-68
2021/05/14 19:02:58;;;;;;;3.53;2.58;;;;;;;;;;5113577;28;20035;-68
2021/05/14 19:05:25;;;;;;;3.00;2.65;;;;;;;;;;5113293;28;20095;-69
2021/05/14 19:07:52;;;;;;;4.63;3.63;;;;;;;;;;5113553;28;20011;-68
2021/05/14 19:10:18;;;;;;;10.27;6.63;;;;;;;;;;5113569;28;20106;-69
2021/05/14 19:12:45;;;;;;;8.68;6.40;;;;;;;;;;5113171;28;20127;-71
2021/05/14 19:15:12;;;;;;;9.27;6.15;;;;;;;;;;5095839;28;20011;-70
2021/05/14 19:17:38;;;;;;;4.38;3.95;;;;;;;;;;5113782;28;20103;-69
2021/05/14 19:20:05;;;;;;;3.38;2.83;;;;;;;;;;5114010;28;20019;-69
2021/05/14 19:22:36;;;;;;;3.78;3.47;;;;;;;;;;5113861;28;20058;-68
2021/05/14 19:25:25;;;;;;;7.63;2.97;;;;;;;;;;5113895;28;20047;-70
2021/05/14 19:36:01;;;;;;;2.25;2.05;;;;;;;;;;5113588;28;20398;-68
2021/05/14 19:48:49;;;;;;;3.03;2.10;;;17.80;99.90;;;;;;5113280;28;20024;-68
2021/05/14 19:51:15;;;;;;;6.05;2.50;;;19.00;99.90;;;;;;5113564;28;20140;-70
2021/05/14 19:53:41;;;;;;;7.75;3.13;;;17.70;99.90;;;;;;5113506;28;20460;-72
2021/05/14 19:56:07;;;;;;;4.75;2.58;;;17.70;99.90;;;;;;5113715;28;20077;-69
2021/05/14 19:58:34;;;;;;;4.15;2.58;;;17.60;99.90;;;;;;5094952;28;20039;-71
2021/05/14 20:01:01;;;;;;;3.05;2.50;;;17.60;99.90;;;;;;5113359;28;20026;-71
2021/05/14 20:03:27;;;;;;;3.55;2.50;;;17.60;99.90;;;;;;5113284;28;20070;-70
2021/05/14 20:05:53;;;;;;;4.32;2.25;;;17.60;99.90;;;;;;5113311;28;20031;-70
2021/05/14 20:08:19;;;;;;;3.70;2.75;;;17.60;99.90;;;;;;5095000;28;20060;-71
2021/05/14 20:10:45;;;;;;;5.05;2.90;;;17.60;99.90;;;;;;5113261;28;20023;-71
2021/05/14 20:13:11;;;;;;;6.30;3.17;;;17.60;99.90;;;;;;5094865;28;20052;-70
2021/05/14 20:15:37;;;;;;;7.53;5.00;;;17.60;99.90;;;;;;5092651;28;20418;-70
2021/05/14 20:18:04;;;;;;;9.45;5.25;;;17.60;99.90;;;;;;5092965;28;20020;-70
2021/05/14 20:20:30;;;;;;;9.85;5.60;;;17.60;99.90;;;;;;5091611;28;20020;-68
2021/05/14 20:22:56;;;;;;;8.95;5.05;;;17.50;99.90;;;;;;5092804;28;20078;-72
2021/05/14 20:25:22;;;;;;;7.32;4.55;;;17.50;99.90;;;;;;5092892;28;20136;-69
2021/05/14 20:27:48;;;;;;;11.32;4.38;;;17.40;99.90;;;;;;5092795;28;20058;-69
2021/05/14 20:30:14;;;;;;;6.13;4.10;;;17.30;99.90;;;;;;5092588;28;20032;-70
2021/05/14 20:32:41;;;;;;;6.63;3.30;;;17.30;99.90;;;;;;5091468;28;20055;-68
2021/05/14 20:35:14;;;;;;;5.82;3.55;;;17.30;99.90;;;;;;5092864;28;20347;-71
2021/05/14 20:37:43;;;;;;;3.83;3.25;;;17.30;99.90;;;;;;5091565;28;20479;-69
2021/05/14 20:40:11;;;;;;;4.28;3.30;;;17.30;99.90;;;;;;5092905;28;20038;-69
2021/05/14 20:42:40;;;;;;;4.93;3.75;;;17.30;99.90;;;;;;5092706;28;20452;-69
2021/05/14 20:45:09;;;;;;;4.90;3.80;;;17.30;99.90;;;;;;5091378;28;20070;-69
2021/05/14 20:47:35;;;;;;;5.07;3.20;;;17.40;99.90;;;;;;5092783;28;20070;-69
2021/05/14 20:50:04;;;;;;;5.43;3.42;;;17.40;99.90;;;;;;5092808;28;20024;-69
2021/05/14 20:52:30;;;;;;;7.57;2.85;;;17.40;99.90;;;;;;5092716;28;20039;-69
2021/05/14 20:54:56;;;;;;;5.18;2.58;;;17.40;99.90;;;;;;5091333;28;20367;-68
2021/05/14 20:57:22;;;;;;;3.25;2.35;;;17.50;99.90;;;;;;5091279;28;20028;-68
2021/05/14 20:59:48;;;;;;;3.40;1.90;;;17.40;99.90;;;;;;5092641;28;20020;-68
2021/05/14 21:02:14;;;;;;;3.03;2.17;;;17.30;99.90;;;;;;5091165;28;20043;-68
2021/05/14 21:04:40;;;;;;;5.80;2.67;;;17.30;99.90;;;;;;5092409;28;20349;-67
2021/05/14 21:07:05;;;;;;;3.10;2.60;;;17.30;99.90;;;;;;5092380;28;20016;-69
2021/05/14 21:09:31;;;;;;;5.55;2.33;;;17.20;99.90;;;;;;5092878;28;20027;-68
2021/05/14 21:11:57;;;;;;;4.00;2.20;;;17.20;99.90;;;;;;5096032;28;20164;-69
2021/05/14 21:14:23;;;;;;;4.75;1.90;;;17.10;99.90;;;;;;5094847;28;20027;-69
2021/05/14 21:16:49;;;;;;;4.82;1.60;;;17.10;99.90;;;;;;5094462;28;20107;-73
2021/05/14 21:19:17;;;;;;;2.97;1.60;;;17.00;99.90;;;;;;5096084;28;20105;-69
2021/05/14 21:21:43;;;;;;;2.65;1.35;;;17.00;99.90;;;;;;5094662;28;20115;-68
2021/05/14 21:24:09;;;;;;;1.52;1.40;;;17.00;99.90;;;;;;5095855;28;20035;-67
2021/05/14 21:26:37;;;;;;;1.75;1.65;;;16.90;99.90;;;;;;5094502;28;20020;-69
2021/05/14 21:29:04;;;;;;;2.35;1.70;;;16.90;99.90;;;;;;5095879;28;20055;-68
2021/05/14 21:31:30;;;;;;;1.52;1.42;;;16.80;99.90;;;;;;5095722;28;20449;-67
2021/05/14 21:33:55;;;;;;;2.28;1.42;;;16.80;99.90;;;;;;5094409;28;20020;-69
2021/05/14 21:36:22;;;;;;;8.20;1.38;;;16.70;99.90;;;;;;5095375;28;20058;-68
2021/05/14 21:38:49;;;;;;;1.45;1.35;;;16.60;99.90;;;;;;5095633;28;20020;-67
2021/05/14 21:41:16;;;;;;;1.60;1.50;;;16.60;99.90;;;;;;5095615;28;20032;-71
2021/05/14 21:43:42;;;;;;;3.65;1.83;;;16.40;99.90;;;;;;5094811;28;20028;-71
2021/05/14 21:46:08;;;;;;;1.35;1.20;;;16.40;99.90;;;;;;5094227;28;20085;-68
2021/05/14 21:48:34;;;;;;;5.55;1.40;;;16.40;99.90;;;;;;5095149;28;20085;-69
2021/05/14 21:51:00;;;;;;;1.70;1.60;;;16.30;99.90;;;;;;5094078;28;20535;-69
2021/05/14 21:53:25;;;;;;;1.55;1.45;;;16.20;99.90;;;;;;5092403;28;20028;-69
2021/05/14 21:55:53;;;;;;;2.05;1.42;;;16.20;99.90;;;;;;5095476;28;20095;-67
2021/05/14 21:58:22;;;;;;;4.82;1.80;;;16.10;99.90;;;;;;5094124;28;20024;-69
2021/05/14 22:00:53;;;;;;;3.10;1.33;;;16.00;99.90;;;;;;5095173;28;20408;-67
2021/05/14 22:03:24;;;;;;;3.40;1.50;;;16.00;99.90;;;;;;5094066;28;20372;-66